Time;durP1;ratioP1;P1;durP2;ratioP2;P2;SDS_P1;SDS_P2;PMS_P1;PMS_P2;Temp;Humidity;BMP_temperature;BMP_pressure;BME280_temperature;BME280_humidity;BME280_pressure;Samples;Min_cycle;Max_cycle;Signal;HPM_P1;HPM_P2
2021/04/16 00:00:38;;;;;;;9.10;3.33;;;21.30;32.80;;;;;;5110556;27;752197;-48
2021/04/16 00:03:18;;;;;;;5.32;2.72;;;21.40;32.90;;;;;;5091718;27;20396;-45
2021/04/16 00:05:56;;;;;;;5.90;3.00;;;21.40;32.80;;;;;;5077382;27;20389;-47
2021/04/16 00:08:35;;;;;;;5.97;3.38;;;21.40;32.90;;;;;;5109578;27;20375;-49
2021/04/16 00:11:16;;;;;;;6.28;3.33;;;21.40;33.40;;;;;;5109864;27;20355;-46
2021/04/16 00:13:55;;;;;;;5.78;2.97;;;21.40;32.70;;;;;;5109733;27;20351;-48
2021/04/16 00:16:34;;;;;;;7.50;2.80;;;21.40;32.70;;;;;;5089234;28;20409;-47
2021/04/16 00:19:13;;;;;;;5.47;2.80;;;21.50;32.60;;;;;;5069465;28;20361;-48
2021/04/16 00:21:53;;;;;;;5.22;3.05;;;21.40;32.50;;;;;;5157049;27;20441;-47
2021/04/16 00:24:31;;;;;;;6.32;3.63;;;21.50;32.70;;;;;;5121863;27;726833;-48
2021/04/16 00:27:10;;;;;;;6.03;3.15;;;21.50;32.60;;;;;;5113663;27;727211;-45
2021/04/16 00:29:48;;;;;;;5.13;2.55;;;21.50;32.60;;;;;;5077965;27;20453;-48
2021/04/16 00:32:27;;;;;;;7.95;3.20;;;21.40;32.30;;;;;;5107500;27;20444;-48
2021/04/16 00:35:07;;;;;;;4.70;3.03;;;21.50;32.40;;;;;;5109955;27;20355;-47
2021/04/16 00:37:46;;;;;;;6.55;2.90;;;21.50;32.30;;;;;;5111568;27;20698;-46
2021/04/16 00:40:30;;;;;;;4.32;2.63;;;21.50;32.40;;;;;;5069446;28;20658;-48
2021/04/16 00:43:14;;;;;;;5.68;3.33;;;21.50;32.30;;;;;;5089474;27;20402;-45
2021/04/16 00:46:04;;;;;;;6.07;3.10;;;21.50;32.10;;;;;;5109774;27;20363;-48
2021/04/16 00:48:52;;;;;;;5.50;2.95;;;21.50;32.10;;;;;;5109913;27;20355;-47
2021/04/16 00:51:54;;;;;;;6.15;3.25;;;21.50;32.10;;;;;;5109757;27;20763;-46
2021/04/16 00:54:35;;;;;;;5.20;3.00;;;21.50;32.20;;;;;;5109847;27;20921;-48
2021/04/16 00:57:14;;;;;;;5.85;3.20;;;21.50;31.90;;;;;;5126260;27;723324;-47
2021/04/16 00:59:56;;;;;;;4.53;2.78;;;21.50;32.10;;;;;;5092909;27;20375;-46
2021/04/16 01:02:35;;;;;;;5.85;3.33;;;21.50;32.20;;;;;;5122485;27;719113;-47
2021/04/16 01:05:15;;;;;;;5.90;3.28;;;21.50;32.10;;;;;;5109961;27;20347;-47
2021/04/16 01:07:57;;;;;;;6.80;2.92;;;21.50;32.10;;;;;;5110032;27;20351;-46
2021/04/16 01:10:35;;;;;;;5.18;2.88;;;21.50;32.10;;;;;;5110037;27;20351;-45
2021/04/16 01:13:27;;;;;;;5.68;3.00;;;21.50;31.90;;;;;;5109323;27;20371;-47
2021/04/16 01:16:10;;;;;;;8.25;3.00;;;21.50;32.00;;;;;;5089716;28;20401;-47
2021/04/16 01:18:51;;;;;;;4.25;2.75;;;21.50;32.00;;;;;;5109929;27;20355;-46
2021/04/16 01:21:43;;;;;;;5.22;3.38;;;21.50;32.10;;;;;;5093404;27;20396;-46
2021/04/16 01:24:30;;;;;;;5.22;3.38;;;21.50;32.00;;;;;;5087256;28;20054;-49
2021/04/16 01:27:13;;;;;;;5.35;3.50;;;21.50;32.10;;;;;;5106526;27;20368;-47
2021/04/16 01:29:51;;;;;;;6.68;3.35;;;21.50;32.10;;;;;;5101535;27;20379;-46
2021/04/16 01:32:31;;;;;;;5.30;3.30;;;21.50;31.80;;;;;;5109947;27;20343;-47
2021/04/16 01:35:24;;;;;;;6.65;3.00;;;21.50;32.00;;;;;;5117291;27;20759;-44
2021/04/16 01:38:04;;;;;;;9.68;3.53;;;21.50;32.10;;;;;;5089641;28;20403;-48
2021/04/16 01:40:42;;;;;;;4.72;3.00;;;21.50;31.80;;;;;;5109728;27;20351;-48
2021/04/16 01:43:33;;;;;;;5.80;3.20;;;21.50;31.80;;;;;;5109711;27;20355;-47
2021/04/16 01:46:16;;;;;;;4.47;2.80;;;21.50;32.10;;;;;;5109866;27;20748;-46
2021/04/16 01:49:00;;;;;;;5.53;2.75;;;21.50;31.80;;;;;;5109835;27;20351;-47
2021/04/16 01:51:39;;;;;;;5.22;3.00;;;21.50;31.80;;;;;;5089558;27;20352;-48
2021/04/16 01:54:51;;;;;;;4.18;2.63;;;21.50;31.80;;;;;;5107657;27;20375;-44
2021/04/16 01:57:33;;;;;;;4.93;3.00;;;21.50;31.90;;;;;;5094685;27;20444;-47
2021/04/16 02:00:20;;;;;;;7.35;3.13;;;21.50;32.00;;;;;;5109503;27;20375;-48
2021/04/16 02:02:59;;;;;;;4.60;2.85;;;21.50;31.80;;;;;;5025490;28;20130;-48
2021/04/16 02:05:37;;;;;;;5.30;2.53;;;21.50;31.70;;;;;;5122116;27;726019;-46
2021/04/16 02:08:17;;;;;;;5.07;3.25;;;21.50;31.80;;;;;;5114347;27;20354;-48
2021/04/16 02:10:56;;;;;;;4.72;2.90;;;21.50;31.90;;;;;;5109349;27;20355;-46
2021/04/16 02:13:34;;;;;;;4.07;2.53;;;21.50;31.70;;;;;;5109946;27;20736;-47
2021/04/16 02:16:12;;;;;;;4.85;3.13;;;21.60;31.70;;;;;;5069563;28;20357;-50
2021/04/16 02:18:39;;;;;;;4.53;2.88;;;21.50;31.90;;;;;;5069137;28;20120;-48
2021/04/16 02:21:17;;;;;;;4.38;2.75;;;21.50;31.70;;;;;;5109941;27;20359;-47
2021/04/16 02:23:55;;;;;;;5.38;2.80;;;21.50;31.60;;;;;;5132489;27;723188;-45
2021/04/16 02:26:35;;;;;;;4.78;2.80;;;21.60;31.90;;;;;;5109091;27;20439;-49
2021/04/16 02:29:16;;;;;;;4.40;2.70;;;21.60;32.00;;;;;;5100860;27;20360;-47
2021/04/16 02:31:55;;;;;;;3.55;2.65;;;21.50;31.60;;;;;;5089161;27;20397;-48
2021/04/16 02:34:33;;;;;;;4.85;2.95;;;21.60;31.20;;;;;;5119051;27;725497;-47
2021/04/16 02:37:17;;;;;;;5.68;2.83;;;21.60;31.80;;;;;;5110484;27;724356;-45
2021/04/16 02:39:44;;;;;;;4.45;2.83;;;21.60;31.80;;;;;;5118882;28;20047;-44
2021/04/16 02:42:23;;;;;;;5.13;3.08;;;21.60;31.60;;;;;;5089448;28;20406;-47
2021/04/16 02:45:06;;;;;;;6.20;3.20;;;21.60;31.50;;;;;;5117534;27;20359;-47
2021/04/16 02:47:45;;;;;;;5.38;3.30;;;21.60;31.70;;;;;;5110062;27;20359;-48
2021/04/16 02:50:29;;;;;;;6.03;3.20;;;21.60;31.60;;;;;;5109833;27;20355;-48
2021/04/16 02:53:07;;;;;;;7.53;3.22;;;21.50;31.50;;;;;;5066672;28;20431;-48
2021/04/16 02:55:46;;;;;;;7.35;3.05;;;21.60;31.60;;;;;;5109407;27;20347;-48
2021/04/16 02:58:25;;;;;;;6.07;2.90;;;21.50;31.40;;;;;;5110154;27;20351;-48
2021/04/16 03:01:04;;;;;;;6.47;3.17;;;21.60;31.50;;;;;;5102867;27;20372;-48
2021/04/16 03:03:41;;;;;;;6.38;3.47;;;21.60;31.20;;;;;;5117090;27;721778;-47
2021/04/16 03:06:20;;;;;;;5.47;3.15;;;21.60;31.60;;;;;;5128693;27;736240;-46
2021/04/16 03:09:01;;;;;;;5.18;2.83;;;21.60;31.60;;;;;;5146900;27;732229;-47
2021/04/16 03:11:39;;;;;;;6.05;3.25;;;21.60;31.60;;;;;;5125729;27;729326;-48
2021/04/16 03:14:18;;;;;;;4.97;2.85;;;21.50;31.30;;;;;;5109853;27;20355;-48
2021/04/16 03:16:56;;;;;;;4.80;3.15;;;21.60;31.40;;;;;;5119976;27;724214;-46
2021/04/16 03:19:33;;;;;;;8.02;3.65;;;21.60;31.50;;;;;;5114316;27;728406;-48
2021/04/16 03:22:12;;;;;;;5.45;3.10;;;21.60;31.50;;;;;;5088879;27;20368;-47
2021/04/16 03:24:52;;;;;;;6.53;3.30;;;21.60;31.40;;;;;;5094140;27;20379;-48
2021/04/16 03:27:30;;;;;;;6.25;3.10;;;21.60;31.40;;;;;;5097885;27;20391;-47
2021/04/16 03:30:15;;;;;;;5.85;3.28;;;21.60;31.40;;;;;;5109572;27;20787;-46
2021/04/16 03:32:54;;;;;;;6.13;3.25;;;21.60;31.40;;;;;;5109873;27;20351;-49
2021/04/16 03:35:32;;;;;;;5.78;3.30;;;21.60;31.40;;;;;;5125109;27;722662;-48
2021/04/16 03:38:12;;;;;;;5.63;3.22;;;21.60;31.40;;;;;;5109602;27;20351;-46
2021/04/16 03:40:51;;;;;;;6.97;3.30;;;21.60;31.20;;;;;;5109930;27;20351;-49
2021/04/16 03:43:29;;;;;;;7.35;3.35;;;21.60;31.30;;;;;;5116533;27;20351;-48
2021/04/16 03:46:12;;;;;;;5.53;3.03;;;21.60;31.40;;;;;;5089690;28;20352;-46
2021/04/16 03:48:50;;;;;;;5.93;3.15;;;21.60;31.30;;;;;;5089398;28;20352;-52
2021/04/16 03:51:29;;;;;;;7.03;3.58;;;21.60;31.40;;;;;;5069421;27;20419;-52
2021/04/16 03:54:07;;;;;;;5.68;3.17;;;21.60;31.30;;;;;;5092797;27;20387;-50
2021/04/16 03:56:45;;;;;;;6.22;3.40;;;21.60;31.40;;;;;;5099174;27;20352;-52
2021/04/16 03:59:25;;;;;;;6.35;3.10;;;21.60;31.10;;;;;;5098095;27;20375;-49
2021/04/16 04:02:03;;;;;;;6.18;3.17;;;21.60;31.10;;;;;;5069725;27;20385;-48
2021/04/16 04:04:41;;;;;;;5.07;3.20;;;21.60;31.20;;;;;;5116868;27;20359;-50
2021/04/16 04:07:20;;;;;;;6.90;3.38;;;21.60;31.20;;;;;;5109422;27;20355;-51
2021/04/16 04:09:58;;;;;;;6.13;3.20;;;21.60;31.20;;;;;;5110058;27;20347;-48
2021/04/16 04:12:36;;;;;;;7.50;3.17;;;21.60;31.20;;;;;;5109698;27;20359;-45
2021/04/16 04:15:17;;;;;;;6.93;3.28;;;21.60;30.90;;;;;;5120073;27;727813;-50
2021/04/16 04:17:56;;;;;;;8.20;3.33;;;21.60;31.00;;;;;;5109866;27;20343;-47
2021/04/16 04:20:36;;;;;;;6.78;3.33;;;21.60;31.20;;;;;;5088389;27;20448;-50
2021/04/16 04:23:14;;;;;;;5.90;3.10;;;21.60;31.00;;;;;;5090633;27;20784;-46
2021/04/16 04:25:52;;;;;;;8.30;3.17;;;21.60;31.20;;;;;;5116209;27;730220;-50
2021/04/16 04:28:30;;;;;;;7.82;3.72;;;21.60;31.20;;;;;;5089607;28;20356;-47
2021/04/16 04:30:57;;;;;;;;;;;21.60;31.10;;;;;;5089558;28;20044;-46
2021/04/16 04:33:35;;;;;;;5.78;3.25;;;21.60;31.30;;;;;;5109744;27;20351;-48
2021/04/16 04:36:15;;;;;;;8.80;3.30;;;21.60;31.00;;;;;;5109578;27;20355;-48
2021/04/16 04:38:53;;;;;;;6.22;3.05;;;21.60;31.00;;;;;;5113313;27;20419;-49
2021/04/16 04:41:32;;;;;;;7.07;3.40;;;21.60;31.00;;;;;;5109985;27;20351;-50
2021/04/16 04:44:10;;;;;;;8.05;3.60;;;21.60;31.20;;;;;;5109702;27;20355;-48
2021/04/16 04:46:48;;;;;;;6.63;3.58;;;21.60;31.20;;;;;;5109767;27;20347;-45
2021/04/16 04:49:27;;;;;;;5.10;3.40;;;21.60;31.10;;;;;;5137795;27;722312;-51
2021/04/16 04:52:19;;;;;;;8.07;3.60;;;21.60;31.20;;;;;;5111976;27;20380;-48
2021/04/16 04:54:59;;;;;;;9.23;3.40;;;21.60;31.20;;;;;;5116360;27;20757;-49
2021/04/16 04:57:39;;;;;;;8.23;3.70;;;21.60;31.20;;;;;;5094234;27;20757;-53
2021/04/16 05:00:18;;;;;;;5.75;3.40;;;21.70;31.30;;;;;;5055726;28;20780;-44
2021/04/16 05:02:57;;;;;;;7.18;3.50;;;21.60;30.90;;;;;;5094878;27;20388;-43
2021/04/16 05:05:36;;;;;;;4.78;2.95;;;21.70;31.30;;;;;;5089149;28;20356;-51
2021/04/16 05:08:14;;;;;;;6.20;3.42;;;21.70;31.00;;;;;;5135047;27;724033;-50
2021/04/16 05:10:52;;;;;;;8.25;4.75;;;21.70;31.30;;;;;;5118811;27;727580;-49
2021/04/16 05:13:57;;;;;;;8.07;4.20;;;21.70;31.00;;;;;;5109724;27;20371;-50
2021/04/16 05:16:35;;;;;;;7.32;3.50;;;21.70;31.10;;;;;;5109255;27;20888;-50
2021/04/16 05:19:13;;;;;;;7.53;3.95;;;21.60;31.00;;;;;;5109516;27;743910;-51
2021/04/16 05:21:54;;;;;;;7.38;3.85;;;21.70;31.70;;;;;;5132679;27;727203;-48
2021/04/16 05:24:34;;;;;;;9.45;3.90;;;21.70;31.20;;;;;;5109946;27;20343;-48
2021/04/16 05:27:16;;;;;;;7.88;4.00;;;21.60;31.20;;;;;;5111148;27;20362;-45
2021/04/16 05:29:54;;;;;;;7.10;3.63;;;21.60;30.90;;;;;;5116237;27;723948;-47
2021/04/16 05:32:33;;;;;;;8.18;3.70;;;21.60;31.20;;;;;;5109797;27;21223;-47
2021/04/16 05:35:11;;;;;;;10.70;3.83;;;21.50;31.00;;;;;;5113062;27;722148;-43
2021/04/16 05:37:49;;;;;;;7.72;3.60;;;21.60;31.00;;;;;;5009668;28;20871;-44
2021/04/16 05:40:16;;;;;;;7.57;3.58;;;21.60;30.90;;;;;;5009252;28;20875;-47
2021/04/16 05:42:55;;;;;;;8.25;3.92;;;21.60;31.00;;;;;;5109541;27;20344;-47
2021/04/16 05:45:34;;;;;;;8.00;3.80;;;21.60;30.90;;;;;;5105261;27;20412;-47
2021/04/16 05:48:13;;;;;;;8.23;3.92;;;21.70;31.30;;;;;;4754226;27;10001865;-48
2021/04/16 05:50:50;;;;;;;7.30;3.90;;;21.70;31.60;;;;;;5107876;27;727454;-46
2021/04/16 05:53:28;;;;;;;7.20;3.85;;;21.70;31.60;;;;;;5120370;27;726084;-47
2021/04/16 05:56:07;;;;;;;6.22;3.78;;;21.70;32.00;;;;;;5067056;28;20762;-48
2021/04/16 05:58:45;;;;;;;11.07;4.18;;;21.70;32.00;;;;;;5064723;28;20363;-44
2021/04/16 06:01:26;;;;;;;8.75;3.80;;;21.80;33.10;;;;;;5094046;27;20396;-48
2021/04/16 06:04:05;;;;;;;10.02;4.13;;;21.80;32.40;;;;;;5107621;27;20366;-48
2021/04/16 06:06:42;;;;;;;10.63;4.03;;;21.70;32.20;;;;;;5117687;27;731582;-48
2021/04/16 06:09:21;;;;;;;6.30;3.58;;;21.70;32.20;;;;;;5141033;27;719939;-47
2021/04/16 06:12:00;;;;;;;9.93;4.10;;;21.70;32.60;;;;;;5104311;27;20359;-47
2021/04/16 06:14:41;;;;;;;9.52;3.97;;;21.80;32.70;;;;;;5101904;27;20366;-51
2021/04/16 06:17:20;;;;;;;10.20;4.28;;;21.70;32.60;;;;;;5103955;27;20363;-47
2021/04/16 06:19:59;;;;;;;11.82;4.97;;;21.80;32.30;;;;;;5078382;28;20389;-48
2021/04/16 06:22:38;;;;;;;9.68;4.40;;;21.80;32.30;;;;;;5101336;27;20362;-46
2021/04/16 06:25:18;;;;;;;8.50;3.85;;;21.70;32.40;;;;;;5117152;27;726176;-45
2021/04/16 06:27:58;;;;;;;9.65;4.28;;;21.70;32.50;;;;;;5100481;27;20348;-48
2021/04/16 06:30:38;;;;;;;7.22;3.88;;;21.70;32.50;;;;;;5080142;27;20753;-48
2021/04/16 06:33:31;;;;;;;8.18;4.32;;;21.70;32.40;;;;;;5069062;28;20060;-48
2021/04/16 06:36:04;;;;;;;11.85;5.07;;;21.70;32.50;;;;;;5089281;28;20045;-47
2021/04/16 06:38:35;;;;;;;10.25;4.95;;;21.70;32.10;;;;;;5089199;28;20094;-47
2021/04/16 06:41:10;;;;;;;11.50;4.68;;;21.70;32.40;;;;;;5020590;28;20052;-45
2021/04/16 06:43:49;;;;;;;10.02;4.63;;;21.60;32.20;;;;;;5088770;28;20105;-47
2021/04/16 06:46:32;;;;;;;12.00;4.47;;;21.60;32.20;;;;;;5079654;28;20490;-49
2021/04/16 06:49:27;;;;;;;10.70;4.25;;;21.60;32.40;;;;;;5078165;28;20078;-47
2021/04/16 06:52:15;;;;;;;10.85;4.50;;;21.50;32.90;;;;;;5075747;28;20036;-46
2021/04/16 06:54:45;;;;;;;11.18;5.03;;;21.50;32.80;;;;;;5070529;28;20491;-47
2021/04/16 06:57:33;;;;;;;12.27;4.20;;;21.50;33.10;;;;;;5075923;28;20090;-49
2021/04/16 07:00:29;;;;;;;13.07;4.55;;;21.60;32.50;;;;;;5078434;28;20488;-48
2021/04/16 07:03:23;;;;;;;8.40;4.28;;;21.40;32.20;;;;;;5045168;28;20082;-48
2021/04/16 07:06:07;;;;;;;7.22;4.03;;;21.40;32.40;;;;;;5065065;28;20048;-46
2021/04/16 07:09:05;;;;;;;8.38;4.00;;;21.50;32.50;;;;;;5078309;28;20036;-51
2021/04/16 07:11:44;;;;;;;10.00;4.30;;;21.40;32.60;;;;;;5033988;28;20079;-47
2021/04/16 07:14:26;;;;;;;8.55;4.30;;;21.50;32.50;;;;;;5075134;28;20049;-51
2021/04/16 07:16:53;;;;;;;9.55;4.82;;;21.40;32.00;;;;;;5070235;28;20109;-48
2021/04/16 07:19:25;;;;;;;13.52;4.88;;;21.40;32.50;;;;;;5075495;28;20036;-48
2021/04/16 07:22:00;;;;;;;13.15;4.88;;;21.40;32.10;;;;;;5080413;28;20049;-51
2021/04/16 07:24:27;;;;;;;9.43;4.10;;;21.50;32.40;;;;;;5075725;28;20036;-49
2021/04/16 07:26:59;;;;;;;11.05;4.22;;;21.50;32.10;;;;;;5063090;28;20052;-52
2021/04/16 07:29:42;;;;;;;6.97;3.42;;;21.50;32.80;;;;;;5074543;28;20064;-49
2021/04/16 07:32:34;;;;;;;14.02;4.38;;;21.20;29.30;;;;;;5084329;28;20086;-49
2021/04/16 07:35:23;;;;;;;10.48;3.92;;;20.70;29.40;;;;;;5088100;28;20106;-49
2021/04/16 07:38:29;;;;;;;14.77;3.88;;;20.20;29.70;;;;;;5065521;28;20048;-45
2021/04/16 07:41:22;;;;;;;6.53;3.08;;;20.20;28.40;;;;;;4978978;28;20055;-48
2021/04/16 07:43:52;;;;;;;5.80;3.10;;;20.20;29.30;;;;;;4972977;28;20055;-52
2021/04/16 07:46:27;;;;;;;9.32;4.13;;;20.10;29.10;;;;;;4973507;28;20086;-51
2021/04/16 07:49:15;;;;;;;8.73;3.88;;;20.10;29.20;;;;;;4972976;28;20430;-52
2021/04/16 07:51:48;;;;;;;441.70;38.25;;;19.90;29.70;;;;;;4973389;28;20051;-51
2021/04/16 07:54:30;;;;;;;121.88;10.82;;;20.00;30.00;;;;;;4973096;28;20043;-50
2021/04/16 07:57:11;;;;;;;22.92;4.00;;;20.00;29.40;;;;;;4973267;28;20501;-48
2021/04/16 07:59:59;;;;;;;9.52;3.83;;;19.90;29.90;;;;;;4972568;28;20457;-48
2021/04/16 08:02:35;;;;;;;8.30;3.42;;;19.70;29.90;;;;;;4973296;28;20051;-49
2021/04/16 08:05:20;;;;;;;;;;;20.10;30.00;;;;;;4973628;28;20079;-46
2021/04/16 08:07:47;;;;;;;11.02;3.95;;;20.40;30.00;;;;;;4958906;28;19922;-49
2021/04/16 08:10:19;;;;;;;;;;;20.80;29.80;;;;;;4964290;28;20141;-47
2021/04/16 08:12:46;;;;;;;10.63;4.15;;;20.90;29.80;;;;;;4960991;28;19927;-49
2021/04/16 08:15:15;;;;;;;;;;;21.10;29.90;;;;;;4969130;28;20572;-49
2021/04/16 08:17:42;;;;;;;7.70;3.53;;;21.20;30.50;;;;;;5009762;28;20394;-44
2021/04/16 08:20:20;;;;;;;10.13;4.25;;;21.30;29.90;;;;;;5069095;28;20047;-48
2021/04/16 08:23:07;;;;;;;10.10;3.83;;;21.30;29.90;;;;;;5066388;28;20048;-48
2021/04/16 08:25:40;;;;;;;8.18;3.95;;;21.50;29.80;;;;;;5068660;28;20441;-50
2021/04/16 08:28:16;;;;;;;10.07;4.35;;;21.50;29.80;;;;;;5065119;28;20063;-46
2021/04/16 08:30:46;;;;;;;9.88;4.50;;;21.60;30.30;;;;;;5069044;28;20177;-49
2021/04/16 08:33:34;;;;;;;8.80;3.33;;;21.60;29.70;;;;;;5073212;28;20048;-47
2021/04/16 08:36:11;;;;;;;9.82;3.80;;;21.70;29.60;;;;;;5073602;28;20549;-49
2021/04/16 08:39:05;;;;;;;9.77;3.92;;;21.70;29.50;;;;;;5068868;28;20067;-46
2021/04/16 08:41:36;;;;;;;9.18;4.15;;;21.70;29.40;;;;;;5072727;28;20557;-44
2021/04/16 08:44:10;;;;;;;8.85;3.85;;;21.70;29.40;;;;;;5073079;28;20121;-48
2021/04/16 08:46:43;;;;;;;8.45;3.97;;;21.80;29.30;;;;;;5073252;28;20044;-48
2021/04/16 08:49:16;;;;;;;11.20;3.90;;;21.70;29.40;;;;;;5073002;28;20091;-45
2021/04/16 08:51:46;;;;;;;8.02;3.50;;;21.70;29.50;;;;;;5072165;28;20057;-50
2021/04/16 08:54:35;;;;;;;7.53;3.47;;;21.80;29.70;;;;;;5072281;28;20384;-48
2021/04/16 08:57:20;;;;;;;8.57;3.20;;;21.80;29.70;;;;;;5072739;28;20048;-48
2021/04/16 09:00:15;;;;;;;6.63;3.38;;;21.80;29.50;;;;;;5047899;28;20057;-47
2021/04/16 09:02:49;;;;;;;7.95;3.03;;;21.80;29.60;;;;;;5072417;28;20441;-49
2021/04/16 09:05:23;;;;;;;7.20;3.45;;;21.80;29.60;;;;;;5073179;28;20045;-50
2021/04/16 09:08:08;;;;;;;4.72;2.88;;;21.80;29.30;;;;;;5061474;28;20076;-47
2021/04/16 09:10:39;;;;;;;10.07;3.50;;;21.80;29.60;;;;;;5054860;28;20115;-50
2021/04/16 09:13:11;;;;;;;4.50;2.50;;;21.80;29.80;;;;;;5072086;28;20052;-47
2021/04/16 09:15:41;;;;;;;8.15;3.20;;;21.80;29.60;;;;;;5072857;28;20090;-47
2021/04/16 09:18:22;;;;;;;9.40;2.80;;;21.80;29.70;;;;;;5072603;28;20036;-48
2021/04/16 09:20:48;;;;;;;8.65;3.13;;;21.80;29.80;;;;;;5072352;28;20044;-49
2021/04/16 09:23:27;;;;;;;9.32;2.83;;;21.80;30.00;;;;;;5072011;28;20117;-50
2021/04/16 09:25:55;;;;;;;10.98;3.13;;;21.80;29.90;;;;;;5072296;28;20048;-49
2021/04/16 09:28:21;;;;;;;;;;;21.80;29.90;;;;;;5072787;28;20122;-47
2021/04/16 09:30:52;;;;;;;4.00;2.50;;;21.80;30.00;;;;;;5071969;28;20333;-49
2021/04/16 09:33:22;;;;;;;7.10;2.90;;;21.80;29.80;;;;;;5072333;28;20048;-47
2021/04/16 09:36:02;;;;;;;10.35;3.03;;;21.80;29.90;;;;;;5045199;28;20495;-50
2021/04/16 09:38:51;;;;;;;5.47;2.88;;;21.80;29.90;;;;;;5066263;28;20388;-49
2021/04/16 09:41:22;;;;;;;7.35;2.80;;;21.80;29.60;;;;;;5071794;28;20086;-46
2021/04/16 09:43:58;;;;;;;8.75;3.28;;;21.70;29.20;;;;;;5072141;28;20044;-50
2021/04/16 09:46:29;;;;;;;6.13;2.75;;;21.70;29.60;;;;;;5071956;28;20136;-48
2021/04/16 09:49:17;;;;;;;5.75;3.08;;;21.70;29.40;;;;;;5071506;28;20055;-51
2021/04/16 09:51:45;;;;;;;4.80;2.83;;;21.70;30.10;;;;;;4970774;28;20046;-48
2021/04/16 09:54:12;;;;;;;7.07;3.20;;;21.70;29.80;;;;;;4957198;28;20133;-49
2021/04/16 09:57:01;;;;;;;8.48;3.05;;;21.70;30.20;;;;;;4954844;28;20058;-49
2021/04/16 09:59:35;;;;;;;5.82;2.70;;;21.80;30.00;;;;;;4968526;28;20055;-49
2021/04/16 10:02:14;;;;;;;5.93;2.85;;;21.80;29.90;;;;;;4957235;28;20074;-48
2021/04/16 10:04:57;;;;;;;7.75;2.90;;;21.80;30.20;;;;;;4962736;28;20102;-47
2021/04/16 10:07:52;;;;;;;6.20;2.80;;;21.80;29.80;;;;;;4954703;28;20055;-49
2021/04/16 10:10:39;;;;;;;7.10;2.58;;;21.80;30.30;;;;;;4958478;28;20043;-44
2021/04/16 10:13:19;;;;;;;5.88;2.85;;;21.80;30.30;;;;;;4961822;28;20046;-47
2021/04/16 10:15:57;;;;;;;5.95;2.70;;;21.80;30.60;;;;;;4957302;28;20051;-47
2021/04/16 10:18:31;;;;;;;4.97;2.75;;;21.80;30.70;;;;;;4952170;28;20057;-48
2021/04/16 10:21:04;;;;;;;7.93;2.90;;;21.80;30.90;;;;;;4957235;28;20051;-48
2021/04/16 10:23:38;;;;;;;9.60;2.88;;;21.80;30.40;;;;;;4940414;28;20503;-47
2021/04/16 11:03:38;;;;;;;6.50;3.45;;;21.70;31.40;;;;;;5070986;28;20453;-48
2021/04/16 12:41:42;;;;;;;14.70;7.13;;;21.00;30.80;;;;;;5116302;27;729024;-48
2021/04/16 12:44:31;;;;;;;5.07;2.90;;;21.10;31.00;;;;;;5109195;28;20082;-48
2021/04/16 12:47:13;;;;;;;5.50;3.10;;;21.10;29.50;;;;;;5109428;27;20347;-47
2021/04/16 12:49:53;;;;;;;20.40;8.02;;;21.10;30.40;;;;;;5109406;27;20355;-47
2021/04/16 12:52:20;;;;;;;13.60;6.03;;;21.30;32.70;;;;;;5109013;28;20044;-47
2021/04/16 12:54:49;;;;;;;20.10;8.55;;;21.30;32.40;;;;;;5109067;28;20388;-46
2021/04/16 12:57:38;;;;;;;14.23;4.53;;;21.40;32.40;;;;;;5089244;27;722720;-47
2021/04/16 13:00:27;;;;;;;6.03;3.10;;;21.30;31.20;;;;;;5089308;28;20417;-45
2021/04/16 13:03:07;;;;;;;6.65;2.80;;;21.30;31.80;;;;;;5125514;27;727704;-45
2021/04/16 13:05:48;;;;;;;4.55;3.00;;;21.20;28.20;;;;;;5089232;28;20348;-48
2021/04/16 13:08:26;;;;;;;4.50;2.70;;;21.00;29.70;;;;;;5068654;28;20365;-47
2021/04/16 13:11:04;;;;;;;5.05;2.60;;;20.90;28.30;;;;;;5089183;28;20406;-50
2021/04/16 13:13:42;;;;;;;5.82;2.92;;;20.90;29.90;;;;;;5109769;27;20359;-48
2021/04/16 13:16:21;;;;;;;7.05;2.88;;;20.90;29.90;;;;;;5137058;27;737762;-49
2021/04/16 13:19:05;;;;;;;20.42;7.78;;;20.90;30.00;;;;;;5109233;27;20355;-50
2021/04/16 13:21:42;;;;;;;7.30;3.20;;;21.00;31.90;;;;;;5128824;27;724586;-48
2021/04/16 13:24:21;;;;;;;10.02;4.75;;;21.00;29.80;;;;;;5114137;27;740954;-47
2021/04/16 13:27:02;;;;;;;7.10;3.42;;;21.00;30.40;;;;;;5109494;27;20355;-47
2021/04/16 13:29:42;;;;;;;6.57;3.00;;;21.10;31.80;;;;;;5112251;27;732341;-47
2021/04/16 13:32:28;;;;;;;5.55;2.95;;;21.20;31.70;;;;;;5126495;27;730678;-46
2021/04/16 13:35:07;;;;;;;10.07;3.58;;;21.10;30.90;;;;;;5117859;27;727579;-47
2021/04/16 13:37:45;;;;;;;11.10;3.45;;;21.20;31.20;;;;;;5114203;27;726079;-48
2021/04/16 13:40:24;;;;;;;4.68;2.80;;;21.20;31.90;;;;;;5109543;27;20408;-49
2021/04/16 13:43:02;;;;;;;15.10;6.32;;;21.30;31.80;;;;;;4986430;28;20537;-48
2021/04/16 13:45:40;;;;;;;11.95;4.25;;;21.40;32.10;;;;;;5109699;27;20803;-47
2021/04/16 13:48:19;;;;;;;5.68;3.00;;;21.40;32.10;;;;;;5109415;27;20356;-46
2021/04/16 13:50:58;;;;;;;8.70;4.03;;;21.30;30.80;;;;;;5104683;27;20349;-46
2021/04/16 13:53:25;;;;;;;6.75;3.15;;;21.20;30.40;;;;;;5088936;28;20040;-48
2021/04/16 13:56:04;;;;;;;7.47;3.50;;;21.20;31.10;;;;;;5109558;27;20351;-48
2021/04/16 13:58:42;;;;;;;5.85;3.20;;;21.20;30.30;;;;;;5109571;27;20351;-50
2021/04/16 14:01:20;;;;;;;5.25;3.00;;;21.10;29.90;;;;;;5109219;27;20351;-48
2021/04/16 14:04:05;;;;;;;5.65;3.05;;;21.10;28.90;;;;;;5109753;27;20359;-48
2021/04/16 14:06:43;;;;;;;6.88;3.30;;;20.90;29.20;;;;;;5068871;28;20430;-49
2021/04/16 14:09:15;;;;;;;6.70;3.00;;;21.00;30.50;;;;;;5068895;28;20041;-48
2021/04/16 14:11:41;;;;;;;5.75;3.03;;;21.00;30.20;;;;;;5068571;28;20060;-50
2021/04/16 14:14:13;;;;;;;;;;;21.10;31.30;;;;;;5069482;28;20041;-49
2021/04/16 14:16:42;;;;;;;4.68;2.70;;;21.10;29.30;;;;;;5055120;28;20375;-49
2021/04/16 14:19:16;;;;;;;7.65;2.92;;;21.10;30.20;;;;;;5068829;28;20049;-47
2021/04/16 14:21:45;;;;;;;8.13;2.83;;;20.90;28.40;;;;;;5054361;28;20158;-49
2021/04/16 14:24:13;;;;;;;6.40;2.90;;;20.80;28.30;;;;;;4715088;28;10000508;-46
2021/04/16 14:26:45;;;;;;;5.25;2.83;;;20.50;26.60;;;;;;5056512;28;20100;-50
2021/04/16 14:29:12;;;;;;;5.40;3.10;;;20.50;29.00;;;;;;5057989;28;20079;-49
2021/04/16 14:31:43;;;;;;;10.93;2.80;;;20.50;27.20;;;;;;5063795;28;20118;-49
2021/04/16 14:34:19;;;;;;;5.57;2.88;;;20.20;26.70;;;;;;5066306;28;20499;-47
2021/04/16 14:36:46;;;;;;;5.35;2.50;;;20.10;27.30;;;;;;5065788;28;20037;-45
2021/04/16 14:39:13;;;;;;;4.32;2.83;;;20.10;27.40;;;;;;5052443;28;20053;-49
2021/04/16 14:41:40;;;;;;;6.25;2.72;;;20.30;30.00;;;;;;5066160;28;20104;-50
2021/04/16 14:44:14;;;;;;;6.00;2.80;;;20.40;29.20;;;;;;5065714;28;20076;-49
2021/04/16 14:46:49;;;;;;;5.78;2.90;;;20.50;28.30;;;;;;5066295;28;20048;-47
2021/04/16 14:49:31;;;;;;;8.18;3.05;;;20.40;27.90;;;;;;5065653;28;20036;-49
2021/04/16 14:52:05;;;;;;;4.93;2.88;;;20.30;27.60;;;;;;5065700;28;20072;-47
2021/04/16 14:54:35;;;;;;;8.15;3.10;;;20.30;29.00;;;;;;5058649;28;20056;-48
2021/04/16 14:57:05;;;;;;;5.65;3.00;;;20.50;30.30;;;;;;5059030;28;20543;-49
2021/04/16 14:59:40;;;;;;;4.68;2.70;;;20.60;30.40;;;;;;5063329;28;20044;-49
2021/04/16 15:02:07;;;;;;;7.30;3.35;;;20.80;30.70;;;;;;5058134;28;20102;-48
2021/04/16 15:04:35;;;;;;;5.45;2.80;;;20.90;30.80;;;;;;5062653;28;20126;-48
2021/04/16 15:07:05;;;;;;;6.07;2.75;;;20.90;30.80;;;;;;5062315;28;20068;-48
2021/04/16 15:09:45;;;;;;;7.13;2.60;;;20.90;30.30;;;;;;5065299;28;20040;-49
2021/04/16 15:12:16;;;;;;;6.68;2.90;;;21.00;30.50;;;;;;5064817;28;20103;-49
2021/04/16 15:14:43;;;;;;;8.73;2.60;;;21.00;30.20;;;;;;5064529;28;20418;-50
2021/04/16 15:17:10;;;;;;;7.07;3.05;;;21.00;30.30;;;;;;5057400;28;20094;-49
2021/04/16 15:19:40;;;;;;;7.25;3.42;;;21.00;30.70;;;;;;5052215;28;20055;-49
2021/04/16 15:22:08;;;;;;;7.65;3.70;;;21.10;31.20;;;;;;5051578;28;20052;-48
2021/04/16 15:24:39;;;;;;;4.80;2.97;;;21.10;30.70;;;;;;5038120;28;20057;-47
2021/04/16 15:27:26;;;;;;;5.85;2.70;;;21.20;30.60;;;;;;5052130;28;20052;-48
2021/04/16 15:29:55;;;;;;;5.63;2.70;;;21.30;30.60;;;;;;5037837;28;20048;-47
2021/04/16 15:32:46;;;;;;;4.95;2.88;;;21.20;29.30;;;;;;5052033;28;20574;-48
2021/04/16 15:46:39;;;;;;;6.45;2.88;;;21.00;29.60;;;;;;5051619;28;20032;-47
2021/04/16 15:49:06;;;;;;;4.07;2.88;;;20.90;29.90;;;;;;5050302;28;20059;-50
2021/04/16 15:51:35;;;;;;;7.97;2.80;;;20.90;30.30;;;;;;5049366;28;20198;-43
2021/04/16 15:54:03;;;;;;;4.72;2.88;;;21.00;31.20;;;;;;5050617;28;20040;-40
2021/04/16 15:56:35;;;;;;;4.63;2.53;;;21.30;32.00;;;;;;5031625;28;20488;-44
2021/04/16 15:59:26;;;;;;;6.82;2.90;;;21.20;30.90;;;;;;5041239;28;20065;-43
2021/04/16 16:01:53;;;;;;;8.27;3.25;;;21.20;30.80;;;;;;5041924;28;20057;-46
2021/04/16 16:04:20;;;;;;;10.00;2.90;;;21.10;29.60;;;;;;5043320;28;20071;-48
2021/04/16 16:06:47;;;;;;;5.93;3.00;;;21.10;30.90;;;;;;5048291;28;20056;-44